sensor_id;sensor_type;location;lat;lon;timestamp;temperature;humidity
6293;DHT22;3179;54.350;10.102;2023-08-30T00:01:27;16.40;99.90
6293;DHT22;3179;54.350;10.102;2023-08-30T00:03:54;16.30;99.90
6293;DHT22;3179;54.350;10.102;2023-08-30T00:06:21;16.30;99.90
6293;DHT22;3179;54.350;10.102;2023-08-30T00:08:49;16.30;99.90
6293;DHT22;3179;54.350;10.102;2023-08-30T00:11:16;16.30;99.90
6293;DHT22;3179;54.350;10.102;2023-08-30T00:13:42;16.30;99.90
6293;DHT22;3179;54.350;10.102;2023-08-30T00:16:09;16.30;99.90
6293;DHT22;3179;54.350;10.102;2023-08-30T00:18:38;16.20;99.90
6293;DHT22;3179;54.350;10.102;2023-08-30T00:21:05;16.20;99.90
6293;DHT22;3179;54.350;10.102;2023-08-30T00:23:32;16.20;99.90
6293;DHT22;3179;54.350;10.102;2023-08-30T00:26:00;16.20;99.90
6293;DHT22;3179;54.350;10.102;2023-08-30T00:28:27;16.20;99.90
6293;DHT22;3179;54.350;10.102;2023-08-30T00:30:54;16.20;99.90
6293;DHT22;3179;54.350;10.102;2023-08-30T00:33:21;16.10;99.90
6293;DHT22;3179;54.350;10.102;2023-08-30T00:35:55;16.10;99.90
6293;DHT22;3179;54.350;10.102;2023-08-30T00:38:22;16.10;99.90
6293;DHT22;3179;54.350;10.102;2023-08-30T00:40:49;16.10;99.90
6293;DHT22;3179;54.350;10.102;2023-08-30T00:43:17;16.00;99.90
6293;DHT22;3179;54.350;10.102;2023-08-30T00:45:44;16.00;99.90
6293;DHT22;3179;54.350;10.102;2023-08-30T00:48:11;16.00;99.90
6293;DHT22;3179;54.350;10.102;2023-08-30T00:50:39;16.00;99.90
6293;DHT22;3179;54.350;10.102;2023-08-30T00:53:06;15.90;99.90
6293;DHT22;3179;54.350;10.102;2023-08-30T00:55:35;15.90;99.90
6293;DHT22;3179;54.350;10.102;2023-08-30T00:58:02;15.90;99.90
6293;DHT22;3179;54.350;10.102;2023-08-30T01:00:30;15.90;99.90
6293;DHT22;3179;54.350;10.102;2023-08-30T01:02:57;15.90;99.90
6293;DHT22;3179;54.350;10.102;2023-08-30T01:05:24;15.90;99.90
6293;DHT22;3179;54.350;10.102;2023-08-30T01:07:51;15.90;99.90
6293;DHT22;3179;54.350;10.102;2023-08-30T01:10:26;15.90;99.90
6293;DHT22;3179;54.350;10.102;2023-08-30T01:12:59;15.80;99.90
6293;DHT22;3179;54.350;10.102;2023-08-30T01:15:27;15.90;99.90
6293;DHT22;3179;54.350;10.102;2023-08-30T01:17:59;15.80;99.90
6293;DHT22;3179;54.350;10.102;2023-08-30T01:20:27;15.70;99.90
6293;DHT22;3179;54.350;10.102;2023-08-30T01:22:59;15.70;99.90
6293;DHT22;3179;54.350;10.102;2023-08-30T01:25:42;15.70;99.90
6293;DHT22;3179;54.350;10.102;2023-08-30T01:28:14;15.70;99.90
6293;DHT22;3179;54.350;10.102;2023-08-30T01:30:43;15.70;99.90
6293;DHT22;3179;54.350;10.102;2023-08-30T01:33:13;15.70;99.90
6293;DHT22;3179;54.350;10.102;2023-08-30T01:35:41;15.70;99.90
6293;DHT22;3179;54.350;10.102;2023-08-30T01:38:08;15.70;99.90
6293;DHT22;3179;54.350;10.102;2023-08-30T01:40:37;15.70;99.90
6293;DHT22;3179;54.350;10.102;2023-08-30T01:43:06;15.70;99.90
6293;DHT22;3179;54.350;10.102;2023-08-30T01:45:36;15.60;99.90
6293;DHT22;3179;54.350;10.102;2023-08-30T01:48:06;15.60;99.90
6293;DHT22;3179;54.350;10.102;2023-08-30T01:50:34;15.60;99.90
6293;DHT22;3179;54.350;10.102;2023-08-30T01:53:02;15.60;99.90
6293;DHT22;3179;54.350;10.102;2023-08-30T01:55:30;15.50;99.90
6293;DHT22;3179;54.350;10.102;2023-08-30T01:57:58;15.50;99.90
6293;DHT22;3179;54.350;10.102;2023-08-30T02:00:25;15.50;99.90
6293;DHT22;3179;54.350;10.102;2023-08-30T02:02:53;15.50;99.90
6293;DHT22;3179;54.350;10.102;2023-08-30T02:05:20;15.50;99.90
6293;DHT22;3179;54.350;10.102;2023-08-30T02:07:51;15.50;99.90
6293;DHT22;3179;54.350;10.102;2023-08-30T02:10:23;15.50;99.90
6293;DHT22;3179;54.350;10.102;2023-08-30T02:12:54;15.50;99.90
6293;DHT22;3179;54.350;10.102;2023-08-30T02:15:21;15.40;99.90
6293;DHT22;3179;54.350;10.102;2023-08-30T02:17:51;15.40;99.90
6293;DHT22;3179;54.350;10.102;2023-08-30T02:20:19;15.40;99.90
6293;DHT22;3179;54.350;10.102;2023-08-30T02:22:46;15.40;99.90
6293;DHT22;3179;54.350;10.102;2023-08-30T02:25:13;15.40;99.90
6293;DHT22;3179;54.350;10.102;2023-08-30T02:27:40;15.40;99.90
6293;DHT22;3179;54.350;10.102;2023-08-30T02:30:07;15.40;99.90
6293;DHT22;3179;54.350;10.102;2023-08-30T02:32:34;15.40;99.90
6293;DHT22;3179;54.350;10.102;2023-08-30T02:35:02;15.40;99.90
6293;DHT22;3179;54.350;10.102;2023-08-30T02:37:30;15.30;99.90
6293;DHT22;3179;54.350;10.102;2023-08-30T02:39:57;15.30;99.90
6293;DHT22;3179;54.350;10.102;2023-08-30T02:42:24;15.30;99.90
6293;DHT22;3179;54.350;10.102;2023-08-30T02:44:51;15.30;99.90
6293;DHT22;3179;54.350;10.102;2023-08-30T02:47:18;15.30;99.90
6293;DHT22;3179;54.350;10.102;2023-08-30T02:49:45;15.30;99.90
6293;DHT22;3179;54.350;10.102;2023-08-30T02:52:12;15.30;99.90
6293;DHT22;3179;54.350;10.102;2023-08-30T02:54:40;15.30;99.90
6293;DHT22;3179;54.350;10.102;2023-08-30T02:57:07;15.30;99.90
6293;DHT22;3179;54.350;10.102;2023-08-30T02:59:34;15.30;99.90
6293;DHT22;3179;54.350;10.102;2023-08-30T03:02:01;15.30;99.90
6293;DHT22;3179;54.350;10.102;2023-08-30T03:04:28;15.40;99.90
6293;DHT22;3179;54.350;10.102;2023-08-30T03:06:55;15.40;99.90
6293;DHT22;3179;54.350;10.102;2023-08-30T03:09:21;15.40;99.90
6293;DHT22;3179;54.350;10.102;2023-08-30T03:11:49;15.40;99.90
6293;DHT22;3179;54.350;10.102;2023-08-30T03:14:16;15.40;99.90
6293;DHT22;3179;54.350;10.102;2023-08-30T03:16:43;15.50;99.90
6293;DHT22;3179;54.350;10.102;2023-08-30T03:19:10;15.50;99.90
6293;DHT22;3179;54.350;10.102;2023-08-30T03:21:37;15.50;99.90
6293;DHT22;3179;54.350;10.102;2023-08-30T03:24:04;15.50;99.90
6293;DHT22;3179;54.350;10.102;2023-08-30T03:26:31;15.50;99.90
6293;DHT22;3179;54.350;10.102;2023-08-30T03:29:00;15.50;99.90
6293;DHT22;3179;54.350;10.102;2023-08-30T03:31:27;15.50;99.90
6293;DHT22;3179;54.350;10.102;2023-08-30T03:33:53;15.50;99.90
6293;DHT22;3179;54.350;10.102;2023-08-30T03:36:20;15.50;99.90
6293;DHT22;3179;54.350;10.102;2023-08-30T03:38:47;15.50;99.90
6293;DHT22;3179;54.350;10.102;2023-08-30T03:41:14;15.50;99.90
6293;DHT22;3179;54.350;10.102;2023-08-30T03:43:41;15.60;99.90
6293;DHT22;3179;54.350;10.102;2023-08-30T03:46:09;15.60;99.90
6293;DHT22;3179;54.350;10.102;2023-08-30T03:48:37;15.60;99.90
6293;DHT22;3179;54.350;10.102;2023-08-30T03:51:04;15.60;99.90
6293;DHT22;3179;54.350;10.102;2023-08-30T03:53:30;15.60;99.90
6293;DHT22;3179;54.350;10.102;2023-08-30T03:55:57;15.60;99.90
6293;DHT22;3179;54.350;10.102;2023-08-30T03:58:25;15.60;99.90
6293;DHT22;3179;54.350;10.102;2023-08-30T04:00:51;15.70;99.90
6293;DHT22;3179;54.350;10.102;2023-08-30T04:03:20;15.70;99.90
6293;DHT22;3179;54.350;10.102;2023-08-30T04:05:46;15.70;99.90
6293;DHT22;3179;54.350;10.102;2023-08-30T04:08:13;15.70;99.90
6293;DHT22;3179;54.350;10.102;2023-08-30T04:10:41;15.70;99.90
6293;DHT22;3179;54.350;10.102;2023-08-30T04:13:09;15.70;99.90
6293;DHT22;3179;54.350;10.102;2023-08-30T04:15:36;15.70;99.90
6293;DHT22;3179;54.350;10.102;2023-08-30T04:18:04;15.70;99.90
6293;DHT22;3179;54.350;10.102;2023-08-30T04:20:33;15.70;99.90
6293;DHT22;3179;54.350;10.102;2023-08-30T04:23:00;15.70;99.90
6293;DHT22;3179;54.350;10.102;2023-08-30T04:25:28;15.80;99.90
6293;DHT22;3179;54.350;10.102;2023-08-30T04:27:55;15.80;99.90
6293;DHT22;3179;54.350;10.102;2023-08-30T04:30:22;15.80;99.90
6293;DHT22;3179;54.350;10.102;2023-08-30T04:32:49;15.80;99.90
6293;DHT22;3179;54.350;10.102;2023-08-30T04:35:16;15.80;99.90
6293;DHT22;3179;54.350;10.102;2023-08-30T04:37:45;15.80;99.90
6293;DHT22;3179;54.350;10.102;2023-08-30T04:40:11;15.80;99.90
6293;DHT22;3179;54.350;10.102;2023-08-30T04:42:38;15.80;99.90
6293;DHT22;3179;54.350;10.102;2023-08-30T04:45:07;15.80;99.90
6293;DHT22;3179;54.350;10.102;2023-08-30T04:47:35;15.80;99.90
6293;DHT22;3179;54.350;10.102;2023-08-30T04:50:02;15.80;99.90
6293;DHT22;3179;54.350;10.102;2023-08-30T04:52:29;15.80;99.90
6293;DHT22;3179;54.350;10.102;2023-08-30T04:54:57;15.90;99.90
6293;DHT22;3179;54.350;10.102;2023-08-30T04:57:24;15.90;99.90
6293;DHT22;3179;54.350;10.102;2023-08-30T04:59:51;15.90;99.90
6293;DHT22;3179;54.350;10.102;2023-08-30T05:02:17;15.90;99.90
6293;DHT22;3179;54.350;10.102;2023-08-30T05:04:44;15.90;99.90
6293;DHT22;3179;54.350;10.102;2023-08-30T05:07:11;15.90;99.90
6293;DHT22;3179;54.350;10.102;2023-08-30T05:09:38;15.90;99.90
6293;DHT22;3179;54.350;10.102;2023-08-30T05:12:08;16.00;99.90
6293;DHT22;3179;54.350;10.102;2023-08-30T05:14:35;16.00;99.90
6293;DHT22;3179;54.350;10.102;2023-08-30T05:17:01;16.00;99.90
6293;DHT22;3179;54.350;10.102;2023-08-30T05:19:28;16.00;99.90
6293;DHT22;3179;54.350;10.102;2023-08-30T05:21:55;16.00;99.90
6293;DHT22;3179;54.350;10.102;2023-08-30T05:24:22;16.00;99.90
6293;DHT22;3179;54.350;10.102;2023-08-30T05:26:49;16.00;99.90
6293;DHT22;3179;54.350;10.102;2023-08-30T05:29:17;16.00;99.90
6293;DHT22;3179;54.350;10.102;2023-08-30T05:31:44;16.00;99.90
6293;DHT22;3179;54.350;10.102;2023-08-30T05:34:11;16.10;99.90
6293;DHT22;3179;54.350;10.102;2023-08-30T05:36:38;16.10;99.90
6293;DHT22;3179;54.350;10.102;2023-08-30T05:39:05;16.10;99.90
6293;DHT22;3179;54.350;10.102;2023-08-30T05:41:32;16.10;99.90
6293;DHT22;3179;54.350;10.102;2023-08-30T05:43:59;16.20;99.90
6293;DHT22;3179;54.350;10.102;2023-08-30T05:46:27;16.20;99.90
6293;DHT22;3179;54.350;10.102;2023-08-30T05:48:54;16.20;99.90
6293;DHT22;3179;54.350;10.102;2023-08-30T05:51:21;16.20;99.90
6293;DHT22;3179;54.350;10.102;2023-08-30T05:53:48;16.20;99.90
6293;DHT22;3179;54.350;10.102;2023-08-30T05:56:15;16.20;99.90
6293;DHT22;3179;54.350;10.102;2023-08-30T05:58:42;16.20;99.90
6293;DHT22;3179;54.350;10.102;2023-08-30T06:01:09;16.20;99.90
6293;DHT22;3179;54.350;10.102;2023-08-30T06:03:37;16.30;99.90
6293;DHT22;3179;54.350;10.102;2023-08-30T06:06:05;16.30;99.90
6293;DHT22;3179;54.350;10.102;2023-08-30T06:08:32;16.30;99.90
6293;DHT22;3179;54.350;10.102;2023-08-30T06:10:58;16.30;99.90
6293;DHT22;3179;54.350;10.102;2023-08-30T06:13:25;16.30;99.90
6293;DHT22;3179;54.350;10.102;2023-08-30T06:15:52;16.30;99.90
6293;DHT22;3179;54.350;10.102;2023-08-30T06:18:19;16.40;99.90
6293;DHT22;3179;54.350;10.102;2023-08-30T06:20:47;16.40;99.90
6293;DHT22;3179;54.350;10.102;2023-08-30T06:23:18;16.40;99.90
6293;DHT22;3179;54.350;10.102;2023-08-30T06:25:45;16.40;99.90
6293;DHT22;3179;54.350;10.102;2023-08-30T06:28:12;16.40;99.90
6293;DHT22;3179;54.350;10.102;2023-08-30T06:30:38;16.50;99.90
6293;DHT22;3179;54.350;10.102;2023-08-30T06:33:05;16.50;99.90
6293;DHT22;3179;54.350;10.102;2023-08-30T06:35:32;16.50;99.90
6293;DHT22;3179;54.350;10.102;2023-08-30T06:38:00;16.50;99.90
6293;DHT22;3179;54.350;10.102;2023-08-30T06:40:27;16.60;99.90
6293;DHT22;3179;54.350;10.102;2023-08-30T06:42:54;16.60;99.90
6293;DHT22;3179;54.350;10.102;2023-08-30T06:45:20;16.60;99.90
6293;DHT22;3179;54.350;10.102;2023-08-30T06:47:48;16.60;99.90
6293;DHT22;3179;54.350;10.102;2023-08-30T06:50:15;16.70;99.90
6293;DHT22;3179;54.350;10.102;2023-08-30T06:52:41;16.70;99.90
6293;DHT22;3179;54.350;10.102;2023-08-30T06:55:10;16.70;99.90
6293;DHT22;3179;54.350;10.102;2023-08-30T06:57:37;16.80;99.90
6293;DHT22;3179;54.350;10.102;2023-08-30T07:00:05;16.80;99.90
6293;DHT22;3179;54.350;10.102;2023-08-30T07:02:34;16.80;99.90
6293;DHT22;3179;54.350;10.102;2023-08-30T07:05:01;16.90;99.90
6293;DHT22;3179;54.350;10.102;2023-08-30T07:07:30;16.90;99.90
6293;DHT22;3179;54.350;10.102;2023-08-30T07:09:57;16.90;99.90
6293;DHT22;3179;54.350;10.102;2023-08-30T07:12:25;17.00;99.90
6293;DHT22;3179;54.350;10.102;2023-08-30T07:14:52;17.00;99.90
6293;DHT22;3179;54.350;10.102;2023-08-30T07:17:19;17.00;99.90
6293;DHT22;3179;54.350;10.102;2023-08-30T07:19:46;17.10;99.90
6293;DHT22;3179;54.350;10.102;2023-08-30T07:22:12;17.10;99.90
6293;DHT22;3179;54.350;10.102;2023-08-30T07:24:41;17.10;99.90
6293;DHT22;3179;54.350;10.102;2023-08-30T07:27:08;17.20;99.90
6293;DHT22;3179;54.350;10.102;2023-08-30T07:29:36;17.20;99.90
6293;DHT22;3179;54.350;10.102;2023-08-30T07:32:04;17.30;99.90
6293;DHT22;3179;54.350;10.102;2023-08-30T07:34:31;17.30;99.90
6293;DHT22;3179;54.350;10.102;2023-08-30T07:36:57;17.30;99.90
6293;DHT22;3179;54.350;10.102;2023-08-30T07:39:24;17.40;99.90
6293;DHT22;3179;54.350;10.102;2023-08-30T07:41:51;17.40;99.90
6293;DHT22;3179;54.350;10.102;2023-08-30T07:44:18;17.40;99.90
6293;DHT22;3179;54.350;10.102;2023-08-30T07:46:47;17.50;99.90
6293;DHT22;3179;54.350;10.102;2023-08-30T07:49:13;17.50;99.90
6293;DHT22;3179;54.350;10.102;2023-08-30T07:51:40;17.60;99.90
6293;DHT22;3179;54.350;10.102;2023-08-30T07:54:07;17.60;99.90
6293;DHT22;3179;54.350;10.102;2023-08-30T07:56:34;17.60;99.90
6293;DHT22;3179;54.350;10.102;2023-08-30T07:59:01;17.70;99.90
6293;DHT22;3179;54.350;10.102;2023-08-30T08:01:28;17.70;99.90
6293;DHT22;3179;54.350;10.102;2023-08-30T08:03:57;17.80;99.90
6293;DHT22;3179;54.350;10.102;2023-08-30T08:06:23;17.80;99.90
6293;DHT22;3179;54.350;10.102;2023-08-30T08:08:50;17.80;99.90
6293;DHT22;3179;54.350;10.102;2023-08-30T08:11:17;17.90;99.90
6293;DHT22;3179;54.350;10.102;2023-08-30T08:13:44;17.90;99.90
6293;DHT22;3179;54.350;10.102;2023-08-30T08:16:11;17.90;99.90
6293;DHT22;3179;54.350;10.102;2023-08-30T08:18:37;18.00;99.90
6293;DHT22;3179;54.350;10.102;2023-08-30T08:21:05;18.00;99.90
6293;DHT22;3179;54.350;10.102;2023-08-30T08:23:32;18.00;99.90
6293;DHT22;3179;54.350;10.102;2023-08-30T08:26:00;18.10;99.90
6293;DHT22;3179;54.350;10.102;2023-08-30T08:28:28;18.20;99.90
6293;DHT22;3179;54.350;10.102;2023-08-30T08:30:54;18.20;99.90
6293;DHT22;3179;54.350;10.102;2023-08-30T08:33:21;18.30;99.90
6293;DHT22;3179;54.350;10.102;2023-08-30T08:35:49;18.30;99.90
6293;DHT22;3179;54.350;10.102;2023-08-30T08:38:18;18.40;99.90
6293;DHT22;3179;54.350;10.102;2023-08-30T08:40:45;18.40;99.90
6293;DHT22;3179;54.350;10.102;2023-08-30T08:43:12;18.40;99.90
6293;DHT22;3179;54.350;10.102;2023-08-30T08:45:39;18.50;99.90
6293;DHT22;3179;54.350;10.102;2023-08-30T08:48:06;18.60;99.90
6293;DHT22;3179;54.350;10.102;2023-08-30T08:50:34;18.60;99.90
6293;DHT22;3179;54.350;10.102;2023-08-30T08:53:02;18.60;99.90
6293;DHT22;3179;54.350;10.102;2023-08-30T08:55:31;18.70;99.90
6293;DHT22;3179;54.350;10.102;2023-08-30T08:58:00;18.80;99.90
6293;DHT22;3179;54.350;10.102;2023-08-30T09:00:30;18.90;99.90
6293;DHT22;3179;54.350;10.102;2023-08-30T09:02:57;18.90;99.90
6293;DHT22;3179;54.350;10.102;2023-08-30T09:05:24;18.90;99.90
6293;DHT22;3179;54.350;10.102;2023-08-30T09:07:51;19.00;99.90
6293;DHT22;3179;54.350;10.102;2023-08-30T09:10:20;19.10;99.90
6293;DHT22;3179;54.350;10.102;2023-08-30T09:12:48;19.10;99.90
6293;DHT22;3179;54.350;10.102;2023-08-30T09:15:15;19.10;99.90
6293;DHT22;3179;54.350;10.102;2023-08-30T09:17:43;19.10;99.90
6293;DHT22;3179;54.350;10.102;2023-08-30T09:20:11;19.10;99.90
6293;DHT22;3179;54.350;10.102;2023-08-30T09:22:39;19.20;99.90
6293;DHT22;3179;54.350;10.102;2023-08-30T09:25:08;19.30;99.90
6293;DHT22;3179;54.350;10.102;2023-08-30T09:27:35;19.30;99.90
6293;DHT22;3179;54.350;10.102;2023-08-30T09:30:06;19.40;99.90
6293;DHT22;3179;54.350;10.102;2023-08-30T09:32:39;19.40;99.90
6293;DHT22;3179;54.350;10.102;2023-08-30T09:35:07;19.40;99.90
6293;DHT22;3179;54.350;10.102;2023-08-30T09:37:35;19.50;99.90
6293;DHT22;3179;54.350;10.102;2023-08-30T09:40:01;19.50;99.90
6293;DHT22;3179;54.350;10.102;2023-08-30T09:42:28;19.50;99.90
6293;DHT22;3179;54.350;10.102;2023-08-30T09:44:56;19.50;99.90
6293;DHT22;3179;54.350;10.102;2023-08-30T09:47:25;19.50;99.90
6293;DHT22;3179;54.350;10.102;2023-08-30T09:49:54;19.50;99.90
6293;DHT22;3179;54.350;10.102;2023-08-30T09:52:24;19.40;99.90
6293;DHT22;3179;54.350;10.102;2023-08-30T09:54:51;19.30;99.90
6293;DHT22;3179;54.350;10.102;2023-08-30T09:57:19;19.30;99.90
6293;DHT22;3179;54.350;10.102;2023-08-30T09:59:48;19.30;99.90
6293;DHT22;3179;54.350;10.102;2023-08-30T10:02:15;19.30;99.90
6293;DHT22;3179;54.350;10.102;2023-08-30T10:04:45;19.40;99.90
6293;DHT22;3179;54.350;10.102;2023-08-30T10:07:13;19.40;99.90
6293;DHT22;3179;54.350;10.102;2023-08-30T10:09:42;19.50;99.90
6293;DHT22;3179;54.350;10.102;2023-08-30T10:12:10;19.50;99.90
6293;DHT22;3179;54.350;10.102;2023-08-30T10:14:37;19.60;99.90
6293;DHT22;3179;54.350;10.102;2023-08-30T10:17:05;19.70;99.90
6293;DHT22;3179;54.350;10.102;2023-08-30T10:19:37;19.80;99.90
6293;DHT22;3179;54.350;10.102;2023-08-30T10:22:06;19.90;99.90
6293;DHT22;3179;54.350;10.102;2023-08-30T10:24:41;19.90;99.90
6293;DHT22;3179;54.350;10.102;2023-08-30T10:27:09;19.90;99.90
6293;DHT22;3179;54.350;10.102;2023-08-30T10:29:38;20.00;99.90
6293;DHT22;3179;54.350;10.102;2023-08-30T10:32:06;20.00;99.90
6293;DHT22;3179;54.350;10.102;2023-08-30T10:34:34;20.00;99.90
6293;DHT22;3179;54.350;10.102;2023-08-30T10:37:03;20.00;99.90
6293;DHT22;3179;54.350;10.102;2023-08-30T10:39:41;20.00;99.90
6293;DHT22;3179;54.350;10.102;2023-08-30T10:42:10;19.90;99.90
6293;DHT22;3179;54.350;10.102;2023-08-30T10:44:47;19.90;99.90
6293;DHT22;3179;54.350;10.102;2023-08-30T10:47:23;19.90;99.90
6293;DHT22;3179;54.350;10.102;2023-08-30T10:49:53;19.90;99.90
6293;DHT22;3179;54.350;10.102;2023-08-30T10:52:21;19.90;99.90
6293;DHT22;3179;54.350;10.102;2023-08-30T10:54:49;19.90;99.90
6293;DHT22;3179;54.350;10.102;2023-08-30T10:57:20;19.90;99.90
6293;DHT22;3179;54.350;10.102;2023-08-30T11:00:07;20.00;99.90
6293;DHT22;3179;54.350;10.102;2023-08-30T11:02:36;20.10;99.90
6293;DHT22;3179;54.350;10.102;2023-08-30T11:05:04;20.10;99.90
6293;DHT22;3179;54.350;10.102;2023-08-30T11:07:32;20.20;99.90
6293;DHT22;3179;54.350;10.102;2023-08-30T11:10:00;20.20;99.90
6293;DHT22;3179;54.350;10.102;2023-08-30T11:12:28;20.10;99.90
6293;DHT22;3179;54.350;10.102;2023-08-30T11:14:56;20.10;99.90
6293;DHT22;3179;54.350;10.102;2023-08-30T11:17:23;20.20;99.90
6293;DHT22;3179;54.350;10.102;2023-08-30T11:19:51;20.20;99.90
6293;DHT22;3179;54.350;10.102;2023-08-30T11:22:23;20.20;99.90
6293;DHT22;3179;54.350;10.102;2023-08-30T11:24:50;20.30;99.90
6293;DHT22;3179;54.350;10.102;2023-08-30T11:27:19;20.30;99.90
6293;DHT22;3179;54.350;10.102;2023-08-30T11:29:46;20.40;99.90
6293;DHT22;3179;54.350;10.102;2023-08-30T11:32:13;20.50;99.90
6293;DHT22;3179;54.350;10.102;2023-08-30T11:34:39;20.60;99.90
6293;DHT22;3179;54.350;10.102;2023-08-30T11:37:07;20.70;99.90
6293;DHT22;3179;54.350;10.102;2023-08-30T11:39:34;20.70;99.90
6293;DHT22;3179;54.350;10.102;2023-08-30T11:42:03;20.70;99.90
6293;DHT22;3179;54.350;10.102;2023-08-30T11:44:32;20.90;99.90
6293;DHT22;3179;54.350;10.102;2023-08-30T11:46:59;21.00;99.90
6293;DHT22;3179;54.350;10.102;2023-08-30T11:49:26;21.10;99.90
6293;DHT22;3179;54.350;10.102;2023-08-30T11:51:54;21.10;99.90
6293;DHT22;3179;54.350;10.102;2023-08-30T11:54:23;21.10;99.90
6293;DHT22;3179;54.350;10.102;2023-08-30T11:56:50;21.10;99.90
6293;DHT22;3179;54.350;10.102;2023-08-30T11:59:21;21.10;99.90
6293;DHT22;3179;54.350;10.102;2023-08-30T12:01:51;21.10;99.90
6293;DHT22;3179;54.350;10.102;2023-08-30T12:04:18;21.10;99.90
6293;DHT22;3179;54.350;10.102;2023-08-30T12:06:51;21.10;99.90
6293;DHT22;3179;54.350;10.102;2023-08-30T12:09:19;21.10;99.90
6293;DHT22;3179;54.350;10.102;2023-08-30T12:11:47;21.10;99.90
6293;DHT22;3179;54.350;10.102;2023-08-30T12:14:14;21.00;99.90
6293;DHT22;3179;54.350;10.102;2023-08-30T12:16:42;21.00;99.90
6293;DHT22;3179;54.350;10.102;2023-08-30T12:19:12;21.10;99.90
6293;DHT22;3179;54.350;10.102;2023-08-30T12:21:46;21.00;99.90
6293;DHT22;3179;54.350;10.102;2023-08-30T12:24:17;21.00;99.90
6293;DHT22;3179;54.350;10.102;2023-08-30T12:26:44;21.10;99.90
6293;DHT22;3179;54.350;10.102;2023-08-30T12:29:11;21.20;99.90
6293;DHT22;3179;54.350;10.102;2023-08-30T12:31:37;21.30;99.90
6293;DHT22;3179;54.350;10.102;2023-08-30T12:34:04;21.40;99.90
6293;DHT22;3179;54.350;10.102;2023-08-30T12:36:32;21.60;99.90
6293;DHT22;3179;54.350;10.102;2023-08-30T12:38:59;21.70;99.90
6293;DHT22;3179;54.350;10.102;2023-08-30T12:41:26;21.70;99.90
6293;DHT22;3179;54.350;10.102;2023-08-30T12:43:53;21.70;99.90
6293;DHT22;3179;54.350;10.102;2023-08-30T12:46:19;21.60;99.90
6293;DHT22;3179;54.350;10.102;2023-08-30T12:48:46;21.50;99.90
6293;DHT22;3179;54.350;10.102;2023-08-30T12:51:13;21.40;99.90
6293;DHT22;3179;54.350;10.102;2023-08-30T12:53:41;21.40;99.90
6293;DHT22;3179;54.350;10.102;2023-08-30T12:56:08;21.50;99.90
6293;DHT22;3179;54.350;10.102;2023-08-30T12:58:39;21.60;99.90
6293;DHT22;3179;54.350;10.102;2023-08-30T13:01:09;21.70;99.90
6293;DHT22;3179;54.350;10.102;2023-08-30T13:03:36;21.60;99.90
6293;DHT22;3179;54.350;10.102;2023-08-30T13:06:03;21.70;99.90
6293;DHT22;3179;54.350;10.102;2023-08-30T13:08:30;21.80;99.90
6293;DHT22;3179;54.350;10.102;2023-08-30T13:11:00;21.80;99.90
6293;DHT22;3179;54.350;10.102;2023-08-30T13:13:27;21.80;99.90
6293;DHT22;3179;54.350;10.102;2023-08-30T13:15:54;21.90;99.90
6293;DHT22;3179;54.350;10.102;2023-08-30T13:18:20;22.00;99.90
6293;DHT22;3179;54.350;10.102;2023-08-30T13:20:57;22.10;99.90
6293;DHT22;3179;54.350;10.102;2023-08-30T13:23:27;22.20;99.90
6293;DHT22;3179;54.350;10.102;2023-08-30T13:25:54;22.20;99.90
6293;DHT22;3179;54.350;10.102;2023-08-30T13:28:22;22.30;99.90
6293;DHT22;3179;54.350;10.102;2023-08-30T13:30:49;22.40;99.90
6293;DHT22;3179;54.350;10.102;2023-08-30T13:33:16;22.40;99.90
6293;DHT22;3179;54.350;10.102;2023-08-30T13:35:43;22.40;99.90
6293;DHT22;3179;54.350;10.102;2023-08-30T13:38:15;22.40;99.90
6293;DHT22;3179;54.350;10.102;2023-08-30T13:40:42;22.40;99.90
6293;DHT22;3179;54.350;10.102;2023-08-30T13:43:08;22.40;99.90
6293;DHT22;3179;54.350;10.102;2023-08-30T13:45:37;22.40;99.90
6293;DHT22;3179;54.350;10.102;2023-08-30T13:48:04;22.40;99.90
6293;DHT22;3179;54.350;10.102;2023-08-30T13:50:31;22.30;99.90
6293;DHT22;3179;54.350;10.102;2023-08-30T13:52:58;22.20;99.90
6293;DHT22;3179;54.350;10.102;2023-08-30T13:55:25;22.20;99.90
6293;DHT22;3179;54.350;10.102;2023-08-30T13:57:51;22.10;99.90
6293;DHT22;3179;54.350;10.102;2023-08-30T14:00:19;22.10;99.90
6293;DHT22;3179;54.350;10.102;2023-08-30T14:02:47;22.00;99.90
6293;DHT22;3179;54.350;10.102;2023-08-30T14:05:14;22.00;99.90
6293;DHT22;3179;54.350;10.102;2023-08-30T14:07:41;22.00;99.90
6293;DHT22;3179;54.350;10.102;2023-08-30T14:10:09;22.00;99.90
6293;DHT22;3179;54.350;10.102;2023-08-30T14:12:36;22.10;99.90
6293;DHT22;3179;54.350;10.102;2023-08-30T14:15:04;22.30;99.90
6293;DHT22;3179;54.350;10.102;2023-08-30T14:17:31;22.30;99.90
6293;DHT22;3179;54.350;10.102;2023-08-30T14:19:59;22.40;99.90
6293;DHT22;3179;54.350;10.102;2023-08-30T14:22:26;22.40;99.90
6293;DHT22;3179;54.350;10.102;2023-08-30T14:24:53;22.30;99.90
6293;DHT22;3179;54.350;10.102;2023-08-30T14:27:20;22.20;99.90
6293;DHT22;3179;54.350;10.102;2023-08-30T14:29:46;22.30;99.90
6293;DHT22;3179;54.350;10.102;2023-08-30T14:32:13;22.30;99.90
6293;DHT22;3179;54.350;10.102;2023-08-30T14:34:40;22.30;99.90
6293;DHT22;3179;54.350;10.102;2023-08-30T14:37:08;22.40;99.90
6293;DHT22;3179;54.350;10.102;2023-08-30T14:39:35;22.40;99.90
6293;DHT22;3179;54.350;10.102;2023-08-30T14:42:02;22.60;99.90
6293;DHT22;3179;54.350;10.102;2023-08-30T14:44:29;22.50;99.90
6293;DHT22;3179;54.350;10.102;2023-08-30T14:46:55;22.40;99.90
6293;DHT22;3179;54.350;10.102;2023-08-30T14:49:22;22.40;99.90
6293;DHT22;3179;54.350;10.102;2023-08-30T14:51:49;22.40;99.90
6293;DHT22;3179;54.350;10.102;2023-08-30T14:54:17;22.30;99.90
6293;DHT22;3179;54.350;10.102;2023-08-30T14:56:44;22.30;99.90
6293;DHT22;3179;54.350;10.102;2023-08-30T14:59:11;22.20;99.90
6293;DHT22;3179;54.350;10.102;2023-08-30T15:01:37;22.10;99.90
6293;DHT22;3179;54.350;10.102;2023-08-30T15:04:05;22.00;99.90
6293;DHT22;3179;54.350;10.102;2023-08-30T15:06:31;22.00;99.90
6293;DHT22;3179;54.350;10.102;2023-08-30T15:08:58;22.00;99.90
6293;DHT22;3179;54.350;10.102;2023-08-30T15:11:27;22.00;99.90
6293;DHT22;3179;54.350;10.102;2023-08-30T15:13:54;22.00;99.90
6293;DHT22;3179;54.350;10.102;2023-08-30T15:16:20;22.00;99.90
6293;DHT22;3179;54.350;10.102;2023-08-30T15:18:47;21.90;99.90
6293;DHT22;3179;54.350;10.102;2023-08-30T15:21:14;21.90;99.90
6293;DHT22;3179;54.350;10.102;2023-08-30T15:23:41;21.90;99.90
6293;DHT22;3179;54.350;10.102;2023-08-30T15:26:07;21.90;99.90
6293;DHT22;3179;54.350;10.102;2023-08-30T15:28:37;21.90;99.90
6293;DHT22;3179;54.350;10.102;2023-08-30T15:31:05;21.90;99.90
6293;DHT22;3179;54.350;10.102;2023-08-30T15:33:32;21.90;99.90
6293;DHT22;3179;54.350;10.102;2023-08-30T15:35:59;21.90;99.90
6293;DHT22;3179;54.350;10.102;2023-08-30T15:38:26;21.80;99.90
6293;DHT22;3179;54.350;10.102;2023-08-30T15:40:54;21.80;99.90
6293;DHT22;3179;54.350;10.102;2023-08-30T15:43:21;21.80;99.90
6293;DHT22;3179;54.350;10.102;2023-08-30T15:45:52;21.80;99.90
6293;DHT22;3179;54.350;10.102;2023-08-30T15:48:18;21.70;99.90